sensor_id;sensor_type;location;lat;lon;timestamp;P1;durP1;ratioP1;P2;durP2;ratioP2
56770;SDS011;42641;59.794;17.616;2022-08-07T00:01:43;0.90;;;0.90;;
56770;SDS011;42641;59.794;17.616;2022-08-07T00:04:10;1.37;;;1.00;;
56770;SDS011;42641;59.794;17.616;2022-08-07T00:06:37;0.77;;;0.77;;
56770;SDS011;42641;59.794;17.616;2022-08-07T00:09:04;1.40;;;0.80;;
56770;SDS011;42641;59.794;17.616;2022-08-07T00:11:30;1.07;;;0.80;;
56770;SDS011;42641;59.794;17.616;2022-08-07T00:13:56;0.80;;;0.80;;
56770;SDS011;42641;59.794;17.616;2022-08-07T00:16:23;0.70;;;0.70;;
56770;SDS011;42641;59.794;17.616;2022-08-07T00:18:49;0.87;;;0.73;;
56770;SDS011;42641;59.794;17.616;2022-08-07T00:21:16;2.23;;;1.00;;
56770;SDS011;42641;59.794;17.616;2022-08-07T00:23:42;3.37;;;1.23;;
56770;SDS011;42641;59.794;17.616;2022-08-07T00:26:09;0.80;;;0.80;;
56770;SDS011;42641;59.794;17.616;2022-08-07T00:28:36;1.40;;;0.73;;
56770;SDS011;42641;59.794;17.616;2022-08-07T00:31:09;1.77;;;1.03;;
56770;SDS011;42641;59.794;17.616;2022-08-07T00:33:37;2.63;;;1.13;;
56770;SDS011;42641;59.794;17.616;2022-08-07T00:36:04;1.03;;;0.90;;
56770;SDS011;42641;59.794;17.616;2022-08-07T00:38:31;0.93;;;0.93;;
56770;SDS011;42641;59.794;17.616;2022-08-07T00:41:01;1.27;;;1.10;;
56770;SDS011;42641;59.794;17.616;2022-08-07T00:43:29;1.03;;;1.00;;
56770;SDS011;42641;59.794;17.616;2022-08-07T00:45:56;1.00;;;1.00;;
56770;SDS011;42641;59.794;17.616;2022-08-07T00:48:23;1.30;;;1.00;;
56770;SDS011;42641;59.794;17.616;2022-08-07T00:50:49;3.53;;;1.27;;
56770;SDS011;42641;59.794;17.616;2022-08-07T00:53:17;1.43;;;1.33;;
56770;SDS011;42641;59.794;17.616;2022-08-07T00:55:44;0.77;;;0.70;;
56770;SDS011;42641;59.794;17.616;2022-08-07T00:58:10;1.00;;;0.90;;
56770;SDS011;42641;59.794;17.616;2022-08-07T01:00:37;3.33;;;1.00;;
56770;SDS011;42641;59.794;17.616;2022-08-07T01:03:03;2.33;;;1.13;;
56770;SDS011;42641;59.794;17.616;2022-08-07T01:05:30;2.43;;;0.80;;
56770;SDS011;42641;59.794;17.616;2022-08-07T01:07:57;1.30;;;0.90;;
56770;SDS011;42641;59.794;17.616;2022-08-07T01:10:24;2.50;;;0.80;;
56770;SDS011;42641;59.794;17.616;2022-08-07T01:12:50;0.77;;;0.77;;
56770;SDS011;42641;59.794;17.616;2022-08-07T01:15:17;1.00;;;0.90;;
56770;SDS011;42641;59.794;17.616;2022-08-07T01:17:44;0.80;;;0.80;;
56770;SDS011;42641;59.794;17.616;2022-08-07T01:20:12;2.63;;;0.93;;
56770;SDS011;42641;59.794;17.616;2022-08-07T01:22:40;0.70;;;0.70;;
56770;SDS011;42641;59.794;17.616;2022-08-07T01:25:10;1.97;;;1.00;;
56770;SDS011;42641;59.794;17.616;2022-08-07T01:27:38;1.30;;;1.20;;
56770;SDS011;42641;59.794;17.616;2022-08-07T01:30:05;1.80;;;1.00;;
56770;SDS011;42641;59.794;17.616;2022-08-07T01:32:32;1.63;;;1.00;;
56770;SDS011;42641;59.794;17.616;2022-08-07T01:34:59;1.97;;;0.77;;
56770;SDS011;42641;59.794;17.616;2022-08-07T01:37:28;1.60;;;1.10;;
56770;SDS011;42641;59.794;17.616;2022-08-07T01:39:56;2.83;;;0.93;;
56770;SDS011;42641;59.794;17.616;2022-08-07T01:42:29;0.93;;;0.87;;
56770;SDS011;42641;59.794;17.616;2022-08-07T01:44:56;2.30;;;0.90;;
56770;SDS011;42641;59.794;17.616;2022-08-07T01:47:22;1.73;;;0.80;;
56770;SDS011;42641;59.794;17.616;2022-08-07T01:49:50;1.10;;;0.93;;
56770;SDS011;42641;59.794;17.616;2022-08-07T01:52:17;0.90;;;0.90;;
56770;SDS011;42641;59.794;17.616;2022-08-07T01:54:46;1.07;;;1.00;;
56770;SDS011;42641;59.794;17.616;2022-08-07T01:57:21;2.40;;;0.80;;
56770;SDS011;42641;59.794;17.616;2022-08-07T01:59:54;1.10;;;1.00;;
56770;SDS011;42641;59.794;17.616;2022-08-07T02:02:31;2.50;;;1.00;;
56770;SDS011;42641;59.794;17.616;2022-08-07T02:05:03;3.30;;;1.23;;
56770;SDS011;42641;59.794;17.616;2022-08-07T02:07:35;0.80;;;0.80;;
56770;SDS011;42641;59.794;17.616;2022-08-07T02:10:05;0.90;;;0.90;;
56770;SDS011;42641;59.794;17.616;2022-08-07T02:12:37;1.27;;;0.90;;
56770;SDS011;42641;59.794;17.616;2022-08-07T02:15:08;1.67;;;1.10;;
56770;SDS011;42641;59.794;17.616;2022-08-07T02:17:41;2.83;;;1.10;;
56770;SDS011;42641;59.794;17.616;2022-08-07T02:20:08;1.83;;;0.70;;
56770;SDS011;42641;59.794;17.616;2022-08-07T02:22:37;0.97;;;0.80;;
56770;SDS011;42641;59.794;17.616;2022-08-07T02:25:05;1.23;;;1.10;;
56770;SDS011;42641;59.794;17.616;2022-08-07T02:27:34;1.10;;;1.00;;
56770;SDS011;42641;59.794;17.616;2022-08-07T02:30:03;1.47;;;1.03;;
56770;SDS011;42641;59.794;17.616;2022-08-07T02:32:33;1.90;;;1.00;;
56770;SDS011;42641;59.794;17.616;2022-08-07T02:35:04;4.77;;;1.10;;
56770;SDS011;42641;59.794;17.616;2022-08-07T02:37:34;1.67;;;1.00;;
56770;SDS011;42641;59.794;17.616;2022-08-07T02:40:05;2.40;;;1.00;;
56770;SDS011;42641;59.794;17.616;2022-08-07T02:42:33;1.03;;;0.90;;
56770;SDS011;42641;59.794;17.616;2022-08-07T02:45:02;0.93;;;0.70;;
56770;SDS011;42641;59.794;17.616;2022-08-07T02:47:31;2.67;;;0.80;;
56770;SDS011;42641;59.794;17.616;2022-08-07T02:50:05;0.90;;;0.90;;
56770;SDS011;42641;59.794;17.616;2022-08-07T02:52:36;2.17;;;0.80;;
56770;SDS011;42641;59.794;17.616;2022-08-07T02:55:10;1.67;;;0.77;;
56770;SDS011;42641;59.794;17.616;2022-08-07T02:57:48;2.67;;;1.00;;
56770;SDS011;42641;59.794;17.616;2022-08-07T03:00:15;1.40;;;0.97;;
56770;SDS011;42641;59.794;17.616;2022-08-07T03:02:46;0.80;;;0.80;;
56770;SDS011;42641;59.794;17.616;2022-08-07T03:05:15;2.50;;;0.97;;
56770;SDS011;42641;59.794;17.616;2022-08-07T03:07:42;2.90;;;1.23;;
56770;SDS011;42641;59.794;17.616;2022-08-07T03:10:10;3.00;;;1.10;;
56770;SDS011;42641;59.794;17.616;2022-08-07T03:12:38;0.80;;;0.80;;
56770;SDS011;42641;59.794;17.616;2022-08-07T03:15:09;0.67;;;0.67;;
56770;SDS011;42641;59.794;17.616;2022-08-07T03:17:37;0.80;;;0.80;;
56770;SDS011;42641;59.794;17.616;2022-08-07T03:20:07;1.20;;;0.90;;
56770;SDS011;42641;59.794;17.616;2022-08-07T03:22:35;2.83;;;0.90;;
56770;SDS011;42641;59.794;17.616;2022-08-07T03:25:03;0.80;;;0.80;;
56770;SDS011;42641;59.794;17.616;2022-08-07T03:27:37;0.90;;;0.80;;
56770;SDS011;42641;59.794;17.616;2022-08-07T03:30:06;2.57;;;1.00;;
56770;SDS011;42641;59.794;17.616;2022-08-07T03:32:35;1.77;;;1.00;;
56770;SDS011;42641;59.794;17.616;2022-08-07T03:35:05;2.63;;;1.30;;
56770;SDS011;42641;59.794;17.616;2022-08-07T03:37:49;1.13;;;1.03;;
56770;SDS011;42641;59.794;17.616;2022-08-07T03:40:19;2.30;;;1.00;;
56770;SDS011;42641;59.794;17.616;2022-08-07T03:42:45;1.70;;;0.97;;
56770;SDS011;42641;59.794;17.616;2022-08-07T03:45:13;1.50;;;1.10;;
56770;SDS011;42641;59.794;17.616;2022-08-07T03:47:41;1.57;;;0.97;;
56770;SDS011;42641;59.794;17.616;2022-08-07T03:50:08;1.67;;;0.97;;
56770;SDS011;42641;59.794;17.616;2022-08-07T03:52:37;1.90;;;0.90;;
56770;SDS011;42641;59.794;17.616;2022-08-07T03:55:07;1.90;;;1.10;;
56770;SDS011;42641;59.794;17.616;2022-08-07T03:57:36;4.20;;;1.10;;
56770;SDS011;42641;59.794;17.616;2022-08-07T04:00:03;2.90;;;1.10;;
56770;SDS011;42641;59.794;17.616;2022-08-07T04:02:41;0.70;;;0.70;;
56770;SDS011;42641;59.794;17.616;2022-08-07T04:05:13;1.63;;;0.90;;
56770;SDS011;42641;59.794;17.616;2022-08-07T04:07:44;1.23;;;0.90;;
56770;SDS011;42641;59.794;17.616;2022-08-07T04:10:14;1.63;;;1.10;;
56770;SDS011;42641;59.794;17.616;2022-08-07T04:12:41;4.63;;;1.03;;
56770;SDS011;42641;59.794;17.616;2022-08-07T04:15:08;2.43;;;1.10;;
56770;SDS011;42641;59.794;17.616;2022-08-07T04:17:37;1.23;;;0.73;;
56770;SDS011;42641;59.794;17.616;2022-08-07T04:20:10;1.53;;;0.73;;
56770;SDS011;42641;59.794;17.616;2022-08-07T04:22:41;1.60;;;1.00;;
56770;SDS011;42641;59.794;17.616;2022-08-07T04:25:09;1.20;;;0.90;;
56770;SDS011;42641;59.794;17.616;2022-08-07T04:27:36;1.90;;;1.03;;
56770;SDS011;42641;59.794;17.616;2022-08-07T04:30:07;0.87;;;0.83;;
56770;SDS011;42641;59.794;17.616;2022-08-07T04:32:43;0.83;;;0.70;;
56770;SDS011;42641;59.794;17.616;2022-08-07T04:35:11;1.00;;;0.97;;
56770;SDS011;42641;59.794;17.616;2022-08-07T04:37:38;1.50;;;1.00;;
56770;SDS011;42641;59.794;17.616;2022-08-07T04:40:05;1.40;;;1.10;;
56770;SDS011;42641;59.794;17.616;2022-08-07T04:42:32;0.93;;;0.87;;
56770;SDS011;42641;59.794;17.616;2022-08-07T04:45:01;2.60;;;0.97;;
56770;SDS011;42641;59.794;17.616;2022-08-07T04:56:00;0.97;;;0.87;;
56770;SDS011;42641;59.794;17.616;2022-08-07T05:01:41;1.67;;;0.83;;
56770;SDS011;42641;59.794;17.616;2022-08-07T05:04:15;1.80;;;1.00;;
56770;SDS011;42641;59.794;17.616;2022-08-07T05:09:31;0.90;;;0.90;;
56770;SDS011;42641;59.794;17.616;2022-08-07T05:12:08;2.90;;;1.10;;
56770;SDS011;42641;59.794;17.616;2022-08-07T05:14:40;1.57;;;0.87;;
56770;SDS011;42641;59.794;17.616;2022-08-07T05:17:11;5.00;;;1.20;;
56770;SDS011;42641;59.794;17.616;2022-08-07T05:19:42;0.90;;;0.90;;
56770;SDS011;42641;59.794;17.616;2022-08-07T05:22:16;3.87;;;1.17;;
56770;SDS011;42641;59.794;17.616;2022-08-07T05:24:46;1.50;;;1.00;;
56770;SDS011;42641;59.794;17.616;2022-08-07T05:27:16;3.87;;;1.37;;
56770;SDS011;42641;59.794;17.616;2022-08-07T05:29:44;2.77;;;1.23;;
56770;SDS011;42641;59.794;17.616;2022-08-07T05:32:12;4.10;;;1.23;;
56770;SDS011;42641;59.794;17.616;2022-08-07T05:34:40;1.83;;;1.20;;
56770;SDS011;42641;59.794;17.616;2022-08-07T05:37:08;2.37;;;1.77;;
56770;SDS011;42641;59.794;17.616;2022-08-07T05:39:41;3.10;;;1.10;;
56770;SDS011;42641;59.794;17.616;2022-08-07T05:42:09;2.07;;;1.17;;
56770;SDS011;42641;59.794;17.616;2022-08-07T05:44:37;1.47;;;1.30;;
56770;SDS011;42641;59.794;17.616;2022-08-07T05:47:05;1.63;;;1.00;;
56770;SDS011;42641;59.794;17.616;2022-08-07T05:49:34;3.90;;;1.07;;
56770;SDS011;42641;59.794;17.616;2022-08-07T05:52:03;3.93;;;1.27;;
56770;SDS011;42641;59.794;17.616;2022-08-07T05:54:31;3.03;;;1.37;;
56770;SDS011;42641;59.794;17.616;2022-08-07T05:57:00;2.27;;;1.40;;
56770;SDS011;42641;59.794;17.616;2022-08-07T05:59:29;3.70;;;1.50;;
56770;SDS011;42641;59.794;17.616;2022-08-07T06:02:01;1.80;;;1.30;;
56770;SDS011;42641;59.794;17.616;2022-08-07T06:04:32;4.27;;;1.60;;
56770;SDS011;42641;59.794;17.616;2022-08-07T06:07:02;3.90;;;1.33;;
56770;SDS011;42641;59.794;17.616;2022-08-07T06:09:33;4.00;;;1.40;;
56770;SDS011;42641;59.794;17.616;2022-08-07T06:12:00;3.53;;;1.87;;
56770;SDS011;42641;59.794;17.616;2022-08-07T06:14:26;4.97;;;1.40;;
56770;SDS011;42641;59.794;17.616;2022-08-07T06:16:56;3.97;;;1.70;;
56770;SDS011;42641;59.794;17.616;2022-08-07T06:19:33;4.23;;;1.40;;
56770;SDS011;42641;59.794;17.616;2022-08-07T06:22:00;3.83;;;1.77;;
56770;SDS011;42641;59.794;17.616;2022-08-07T06:24:28;6.23;;;1.60;;
56770;SDS011;42641;59.794;17.616;2022-08-07T06:26:54;4.83;;;1.60;;
56770;SDS011;42641;59.794;17.616;2022-08-07T06:29:28;3.77;;;1.57;;
56770;SDS011;42641;59.794;17.616;2022-08-07T06:31:54;4.57;;;2.00;;
56770;SDS011;42641;59.794;17.616;2022-08-07T06:34:24;5.83;;;2.03;;
56770;SDS011;42641;59.794;17.616;2022-08-07T06:36:53;4.13;;;1.77;;
56770;SDS011;42641;59.794;17.616;2022-08-07T06:39:26;2.80;;;1.37;;
56770;SDS011;42641;59.794;17.616;2022-08-07T06:41:59;2.30;;;1.47;;
56770;SDS011;42641;59.794;17.616;2022-08-07T06:45:09;1.55;;;1.08;;
56770;SDS011;42641;59.794;17.616;2022-08-07T06:47:40;3.33;;;1.20;;
56770;SDS011;42641;59.794;17.616;2022-08-07T06:50:09;2.03;;;1.00;;
56770;SDS011;42641;59.794;17.616;2022-08-07T06:52:40;3.53;;;1.00;;
56770;SDS011;42641;59.794;17.616;2022-08-07T06:55:15;4.22;;;1.30;;
56770;SDS011;42641;59.794;17.616;2022-08-07T06:57:47;1.65;;;0.90;;
56770;SDS011;42641;59.794;17.616;2022-08-07T07:00:19;3.35;;;1.00;;
56770;SDS011;42641;59.794;17.616;2022-08-07T07:02:47;1.67;;;0.95;;
56770;SDS011;42641;59.794;17.616;2022-08-07T07:05:13;5.68;;;1.00;;
56770;SDS011;42641;59.794;17.616;2022-08-07T07:07:41;4.38;;;1.10;;
56770;SDS011;42641;59.794;17.616;2022-08-07T07:10:10;2.10;;;1.15;;
56770;SDS011;42641;59.794;17.616;2022-08-07T07:12:40;1.55;;;1.10;;
56770;SDS011;42641;59.794;17.616;2022-08-07T07:23:01;3.80;;;1.00;;
56770;SDS011;42641;59.794;17.616;2022-08-07T07:25:29;3.67;;;1.27;;
56770;SDS011;42641;59.794;17.616;2022-08-07T07:28:02;2.33;;;1.30;;
56770;SDS011;42641;59.794;17.616;2022-08-07T07:30:47;3.75;;;1.42;;
56770;SDS011;42641;59.794;17.616;2022-08-07T07:33:18;4.32;;;1.75;;
56770;SDS011;42641;59.794;17.616;2022-08-07T07:35:47;5.05;;;1.70;;
56770;SDS011;42641;59.794;17.616;2022-08-07T07:38:17;2.65;;;1.50;;
56770;SDS011;42641;59.794;17.616;2022-08-07T07:40:45;3.83;;;1.55;;
56770;SDS011;42641;59.794;17.616;2022-08-07T07:43:14;3.22;;;1.63;;
56770;SDS011;42641;59.794;17.616;2022-08-07T07:45:41;4.68;;;1.90;;
56770;SDS011;42641;59.794;17.616;2022-08-07T07:48:13;2.72;;;1.80;;
56770;SDS011;42641;59.794;17.616;2022-08-07T07:50:45;2.97;;;1.58;;
56770;SDS011;42641;59.794;17.616;2022-08-07T07:53:14;1.90;;;1.70;;
56770;SDS011;42641;59.794;17.616;2022-08-07T07:55:43;3.60;;;1.90;;
56770;SDS011;42641;59.794;17.616;2022-08-07T07:58:10;5.88;;;1.92;;
56770;SDS011;42641;59.794;17.616;2022-08-07T08:00:38;3.50;;;1.95;;
56770;SDS011;42641;59.794;17.616;2022-08-07T08:03:08;3.53;;;2.03;;
56770;SDS011;42641;59.794;17.616;2022-08-07T08:05:37;4.93;;;1.80;;
56770;SDS011;42641;59.794;17.616;2022-08-07T08:08:09;4.78;;;1.83;;
56770;SDS011;42641;59.794;17.616;2022-08-07T08:10:37;4.18;;;1.80;;
56770;SDS011;42641;59.794;17.616;2022-08-07T08:13:05;4.35;;;1.52;;
56770;SDS011;42641;59.794;17.616;2022-08-07T08:15:35;3.33;;;1.80;;
56770;SDS011;42641;59.794;17.616;2022-08-07T08:18:08;5.38;;;1.80;;
56770;SDS011;42641;59.794;17.616;2022-08-07T08:20:36;5.68;;;1.55;;
56770;SDS011;42641;59.794;17.616;2022-08-07T08:23:06;5.13;;;1.67;;
56770;SDS011;42641;59.794;17.616;2022-08-07T08:25:51;4.38;;;2.15;;
56770;SDS011;42641;59.794;17.616;2022-08-07T08:28:53;4.40;;;2.15;;
56770;SDS011;42641;59.794;17.616;2022-08-07T08:31:32;5.18;;;1.85;;
56770;SDS011;42641;59.794;17.616;2022-08-07T08:34:03;4.15;;;1.90;;
56770;SDS011;42641;59.794;17.616;2022-08-07T08:36:33;3.03;;;1.80;;
56770;SDS011;42641;59.794;17.616;2022-08-07T08:39:02;8.38;;;1.80;;
56770;SDS011;42641;59.794;17.616;2022-08-07T08:44:16;5.18;;;1.80;;
56770;SDS011;42641;59.794;17.616;2022-08-07T08:47:04;3.95;;;1.80;;
56770;SDS011;42641;59.794;17.616;2022-08-07T08:52:07;4.75;;;2.15;;
56770;SDS011;42641;59.794;17.616;2022-08-07T08:54:42;3.22;;;2.10;;
56770;SDS011;42641;59.794;17.616;2022-08-07T08:57:18;17.50;;;3.63;;
56770;SDS011;42641;59.794;17.616;2022-08-07T09:00:05;4.30;;;1.80;;
56770;SDS011;42641;59.794;17.616;2022-08-07T09:10:37;2.72;;;1.50;;
56770;SDS011;42641;59.794;17.616;2022-08-07T09:16:32;3.63;;;1.60;;
56770;SDS011;42641;59.794;17.616;2022-08-07T09:32:42;4.57;;;1.70;;
56770;SDS011;42641;59.794;17.616;2022-08-07T09:49:41;2.60;;;1.60;;
56770;SDS011;42641;59.794;17.616;2022-08-07T09:52:45;4.75;;;2.33;;
56770;SDS011;42641;59.794;17.616;2022-08-07T09:55:16;6.03;;;2.10;;
56770;SDS011;42641;59.794;17.616;2022-08-07T10:04:20;5.28;;;1.77;;
56770;SDS011;42641;59.794;17.616;2022-08-07T10:24:11;5.80;;;1.90;;
56770;SDS011;42641;59.794;17.616;2022-08-07T10:40:55;6.50;;;1.88;;
56770;SDS011;42641;59.794;17.616;2022-08-07T10:49:45;6.00;;;1.80;;
56770;SDS011;42641;59.794;17.616;2022-08-07T10:54:45;3.80;;;1.63;;
56770;SDS011;42641;59.794;17.616;2022-08-07T10:57:32;6.32;;;1.75;;
56770;SDS011;42641;59.794;17.616;2022-08-07T11:00:19;3.60;;;1.67;;
56770;SDS011;42641;59.794;17.616;2022-08-07T11:08:11;3.42;;;1.70;;
56770;SDS011;42641;59.794;17.616;2022-08-07T11:11:01;4.97;;;1.65;;
56770;SDS011;42641;59.794;17.616;2022-08-07T11:18:45;5.32;;;1.70;;
56770;SDS011;42641;59.794;17.616;2022-08-07T11:24:03;2.58;;;1.85;;
56770;SDS011;42641;59.794;17.616;2022-08-07T11:26:45;5.22;;;2.08;;
56770;SDS011;42641;59.794;17.616;2022-08-07T11:29:39;5.25;;;2.00;;
56770;SDS011;42641;59.794;17.616;2022-08-07T11:32:15;3.70;;;1.60;;
56770;SDS011;42641;59.794;17.616;2022-08-07T11:34:48;2.30;;;1.55;;
56770;SDS011;42641;59.794;17.616;2022-08-07T11:45:48;7.20;;;2.00;;
56770;SDS011;42641;59.794;17.616;2022-08-07T12:00:04;2.15;;;1.17;;
56770;SDS011;42641;59.794;17.616;2022-08-07T12:05:18;4.85;;;1.67;;
56770;SDS011;42641;59.794;17.616;2022-08-07T12:10:53;4.35;;;1.40;;
56770;SDS011;42641;59.794;17.616;2022-08-07T12:16:16;1.75;;;1.20;;
56770;SDS011;42641;59.794;17.616;2022-08-07T12:18:48;7.80;;;1.42;;
56770;SDS011;42641;59.794;17.616;2022-08-07T12:22:05;5.93;;;1.77;;
56770;SDS011;42641;59.794;17.616;2022-08-07T12:27:53;2.80;;;1.58;;
56770;SDS011;42641;59.794;17.616;2022-08-07T12:30:30;3.72;;;1.50;;
56770;SDS011;42641;59.794;17.616;2022-08-07T12:33:01;2.40;;;1.13;;
56770;SDS011;42641;59.794;17.616;2022-08-07T12:35:32;2.60;;;1.33;;
56770;SDS011;42641;59.794;17.616;2022-08-07T12:38:00;3.17;;;1.30;;
56770;SDS011;42641;59.794;17.616;2022-08-07T12:40:29;1.63;;;1.33;;
56770;SDS011;42641;59.794;17.616;2022-08-07T12:42:59;1.85;;;1.20;;
56770;SDS011;42641;59.794;17.616;2022-08-07T12:45:51;3.55;;;1.40;;
56770;SDS011;42641;59.794;17.616;2022-08-07T12:50:59;1.75;;;1.48;;
56770;SDS011;42641;59.794;17.616;2022-08-07T12:54:03;2.67;;;1.35;;
56770;SDS011;42641;59.794;17.616;2022-08-07T12:56:43;3.65;;;1.48;;
56770;SDS011;42641;59.794;17.616;2022-08-07T12:59:17;2.88;;;1.30;;
56770;SDS011;42641;59.794;17.616;2022-08-07T13:13:26;2.92;;;1.98;;
56770;SDS011;42641;59.794;17.616;2022-08-07T13:15:55;3.40;;;1.38;;
56770;SDS011;42641;59.794;17.616;2022-08-07T13:21:20;1.92;;;1.20;;
56770;SDS011;42641;59.794;17.616;2022-08-07T13:24:19;1.58;;;1.30;;
56770;SDS011;42641;59.794;17.616;2022-08-07T13:27:02;1.73;;;1.25;;
56770;SDS011;42641;59.794;17.616;2022-08-07T13:35:21;1.67;;;1.20;;
56770;SDS011;42641;59.794;17.616;2022-08-07T13:43:45;1.33;;;0.98;;
56770;SDS011;42641;59.794;17.616;2022-08-07T13:46:15;1.20;;;1.10;;
56770;SDS011;42641;59.794;17.616;2022-08-07T13:48:45;1.60;;;1.50;;
56770;SDS011;42641;59.794;17.616;2022-08-07T13:51:17;2.53;;;1.13;;
56770;SDS011;42641;59.794;17.616;2022-08-07T13:53:48;0.95;;;0.75;;
56770;SDS011;42641;59.794;17.616;2022-08-07T13:56:19;1.98;;;0.90;;
56770;SDS011;42641;59.794;17.616;2022-08-07T13:58:48;2.78;;;0.90;;
56770;SDS011;42641;59.794;17.616;2022-08-07T14:01:35;2.55;;;1.23;;
56770;SDS011;42641;59.794;17.616;2022-08-07T14:04:27;1.08;;;0.90;;
56770;SDS011;42641;59.794;17.616;2022-08-07T14:06:55;0.63;;;0.63;;
56770;SDS011;42641;59.794;17.616;2022-08-07T14:09:26;2.35;;;1.10;;
56770;SDS011;42641;59.794;17.616;2022-08-07T14:11:56;3.60;;;0.93;;
56770;SDS011;42641;59.794;17.616;2022-08-07T14:14:50;1.17;;;1.08;;
56770;SDS011;42641;59.794;17.616;2022-08-07T14:17:20;1.45;;;1.15;;
56770;SDS011;42641;59.794;17.616;2022-08-07T14:19:51;2.15;;;1.00;;
56770;SDS011;42641;59.794;17.616;2022-08-07T14:22:19;1.10;;;1.00;;
56770;SDS011;42641;59.794;17.616;2022-08-07T14:24:53;1.88;;;0.85;;
56770;SDS011;42641;59.794;17.616;2022-08-07T14:27:46;1.23;;;0.88;;
56770;SDS011;42641;59.794;17.616;2022-08-07T14:30:13;1.98;;;0.88;;
56770;SDS011;42641;59.794;17.616;2022-08-07T14:32:41;2.35;;;1.00;;
56770;SDS011;42641;59.794;17.616;2022-08-07T14:35:34;1.08;;;0.80;;
56770;SDS011;42641;59.794;17.616;2022-08-07T14:38:01;1.13;;;0.90;;
56770;SDS011;42641;59.794;17.616;2022-08-07T14:40:29;3.28;;;1.08;;
56770;SDS011;42641;59.794;17.616;2022-08-07T14:42:59;1.40;;;0.80;;
56770;SDS011;42641;59.794;17.616;2022-08-07T14:45:29;1.20;;;0.68;;
56770;SDS011;42641;59.794;17.616;2022-08-07T14:48:00;3.15;;;0.95;;
56770;SDS011;42641;59.794;17.616;2022-08-07T14:50:28;1.38;;;0.88;;
56770;SDS011;42641;59.794;17.616;2022-08-07T14:52:55;1.02;;;0.85;;
56770;SDS011;42641;59.794;17.616;2022-08-07T14:55:31;1.77;;;1.00;;
56770;SDS011;42641;59.794;17.616;2022-08-07T14:58:00;1.20;;;0.90;;
56770;SDS011;42641;59.794;17.616;2022-08-07T15:00:28;1.27;;;0.80;;
56770;SDS011;42641;59.794;17.616;2022-08-07T15:02:59;0.73;;;0.73;;
56770;SDS011;42641;59.794;17.616;2022-08-07T15:05:29;1.27;;;0.90;;
56770;SDS011;42641;59.794;17.616;2022-08-07T15:07:56;6.07;;;1.17;;
56770;SDS011;42641;59.794;17.616;2022-08-07T15:10:25;5.95;;;0.80;;
56770;SDS011;42641;59.794;17.616;2022-08-07T15:12:53;0.60;;;0.60;;
56770;SDS011;42641;59.794;17.616;2022-08-07T15:15:38;1.65;;;0.93;;
56770;SDS011;42641;59.794;17.616;2022-08-07T15:18:17;1.30;;;0.98;;
56770;SDS011;42641;59.794;17.616;2022-08-07T15:20:46;1.08;;;0.98;;
56770;SDS011;42641;59.794;17.616;2022-08-07T15:23:18;1.92;;;0.90;;
56770;SDS011;42641;59.794;17.616;2022-08-07T15:25:57;2.00;;;0.85;;
56770;SDS011;42641;59.794;17.616;2022-08-07T15:28:26;2.15;;;0.82;;
56770;SDS011;42641;59.794;17.616;2022-08-07T15:30:56;2.72;;;0.95;;
56770;SDS011;42641;59.794;17.616;2022-08-07T15:33:27;0.82;;;0.75;;
56770;SDS011;42641;59.794;17.616;2022-08-07T15:35:55;0.73;;;0.70;;
56770;SDS011;42641;59.794;17.616;2022-08-07T15:38:28;2.08;;;1.02;;
56770;SDS011;42641;59.794;17.616;2022-08-07T15:40:56;0.95;;;0.77;;
56770;SDS011;42641;59.794;17.616;2022-08-07T15:43:26;0.80;;;0.80;;
56770;SDS011;42641;59.794;17.616;2022-08-07T15:45:53;1.15;;;0.90;;
56770;SDS011;42641;59.794;17.616;2022-08-07T15:48:28;0.68;;;0.68;;
56770;SDS011;42641;59.794;17.616;2022-08-07T15:51:07;0.70;;;0.70;;
56770;SDS011;42641;59.794;17.616;2022-08-07T15:53:38;0.80;;;0.65;;
56770;SDS011;42641;59.794;17.616;2022-08-07T15:56:07;3.60;;;0.73;;
56770;SDS011;42641;59.794;17.616;2022-08-07T16:01:22;1.27;;;0.80;;
56770;SDS011;42641;59.794;17.616;2022-08-07T16:03:52;0.70;;;0.70;;
56770;SDS011;42641;59.794;17.616;2022-08-07T16:06:34;0.90;;;0.73;;
56770;SDS011;42641;59.794;17.616;2022-08-07T16:09:16;0.70;;;0.70;;
56770;SDS011;42641;59.794;17.616;2022-08-07T16:12:08;1.05;;;0.82;;
56770;SDS011;42641;59.794;17.616;2022-08-07T16:15:10;3.50;;;0.80;;
56770;SDS011;42641;59.794;17.616;2022-08-07T16:20:53;2.05;;;0.90;;
56770;SDS011;42641;59.794;17.616;2022-08-07T16:23:29;0.85;;;0.80;;
56770;SDS011;42641;59.794;17.616;2022-08-07T16:31:38;2.38;;;0.85;;
56770;SDS011;42641;59.794;17.616;2022-08-07T16:34:24;1.67;;;0.73;;
56770;SDS011;42641;59.794;17.616;2022-08-07T16:54:01;0.93;;;0.70;;
56770;SDS011;42641;59.794;17.616;2022-08-07T17:02:19;1.88;;;1.10;;
56770;SDS011;42641;59.794;17.616;2022-08-07T17:07:52;1.40;;;0.77;;
56770;SDS011;42641;59.794;17.616;2022-08-07T17:10:23;0.95;;;0.70;;
56770;SDS011;42641;59.794;17.616;2022-08-07T17:21:27;0.65;;;0.65;;
56770;SDS011;42641;59.794;17.616;2022-08-07T17:35:54;1.40;;;0.90;;
56770;SDS011;42641;59.794;17.616;2022-08-07T17:38:38;3.63;;;1.10;;
56770;SDS011;42641;59.794;17.616;2022-08-07T17:41:23;0.98;;;0.88;;
56770;SDS011;42641;59.794;17.616;2022-08-07T17:44:10;0.98;;;0.98;;
56770;SDS011;42641;59.794;17.616;2022-08-07T17:46:52;2.83;;;1.33;;
56770;SDS011;42641;59.794;17.616;2022-08-07T17:49:39;3.05;;;0.90;;
56770;SDS011;42641;59.794;17.616;2022-08-07T17:52:33;0.85;;;0.70;;
56770;SDS011;42641;59.794;17.616;2022-08-07T17:55:12;0.70;;;0.70;;
56770;SDS011;42641;59.794;17.616;2022-08-07T18:00:10;1.20;;;0.88;;
56770;SDS011;42641;59.794;17.616;2022-08-07T18:02:42;1.83;;;1.00;;
56770;SDS011;42641;59.794;17.616;2022-08-07T18:05:30;0.73;;;0.73;;
56770;SDS011;42641;59.794;17.616;2022-08-07T18:10:50;1.48;;;0.77;;
56770;SDS011;42641;59.794;17.616;2022-08-07T18:13:42;1.00;;;0.85;;
56770;SDS011;42641;59.794;17.616;2022-08-07T18:16:13;1.70;;;1.00;;
56770;SDS011;42641;59.794;17.616;2022-08-07T18:18:51;1.23;;;0.90;;
56770;SDS011;42641;59.794;17.616;2022-08-07T18:21:26;1.50;;;1.08;;
56770;SDS011;42641;59.794;17.616;2022-08-07T18:24:02;1.02;;;0.95;;
56770;SDS011;42641;59.794;17.616;2022-08-07T18:44:59;1.55;;;0.80;;
56770;SDS011;42641;59.794;17.616;2022-08-07T18:47:36;1.00;;;1.00;;
56770;SDS011;42641;59.794;17.616;2022-08-07T19:04:11;1.85;;;1.10;;
56770;SDS011;42641;59.794;17.616;2022-08-07T19:07:03;0.98;;;0.98;;
56770;SDS011;42641;59.794;17.616;2022-08-07T19:09:45;1.45;;;1.05;;
56770;SDS011;42641;59.794;17.616;2022-08-07T19:12:20;1.50;;;1.08;;
56770;SDS011;42641;59.794;17.616;2022-08-07T19:14:58;1.38;;;1.08;;
56770;SDS011;42641;59.794;17.616;2022-08-07T19:17:40;1.52;;;1.20;;
56770;SDS011;42641;59.794;17.616;2022-08-07T19:20:46;1.10;;;1.00;;
56770;SDS011;42641;59.794;17.616;2022-08-07T19:23:24;2.15;;;1.15;;
56770;SDS011;42641;59.794;17.616;2022-08-07T19:25:54;2.00;;;1.13;;
56770;SDS011;42641;59.794;17.616;2022-08-07T19:28:22;1.67;;;1.20;;
56770;SDS011;42641;59.794;17.616;2022-08-07T19:30:56;1.70;;;1.00;;
56770;SDS011;42641;59.794;17.616;2022-08-07T19:33:35;4.82;;;1.30;;
56770;SDS011;42641;59.794;17.616;2022-08-07T19:36:06;2.88;;;1.08;;
56770;SDS011;42641;59.794;17.616;2022-08-07T19:38:36;1.48;;;1.05;;
56770;SDS011;42641;59.794;17.616;2022-08-07T19:41:06;2.47;;;1.30;;
56770;SDS011;42641;59.794;17.616;2022-08-07T19:43:33;1.30;;;1.20;;
56770;SDS011;42641;59.794;17.616;2022-08-07T19:46:06;1.10;;;1.00;;
56770;SDS011;42641;59.794;17.616;2022-08-07T19:48:39;1.13;;;1.00;;